sensor_id;sensor_type;location;lat;lon;timestamp;P1;durP1;ratioP1;P2;durP2;ratioP2
58091;SDS011;43896;48.178;11.578;2024-01-07T00:01:10;11.38;;;7.10;;
58091;SDS011;43896;48.178;11.578;2024-01-07T00:03:36;11.68;;;7.43;;
58091;SDS011;43896;48.178;11.578;2024-01-07T00:06:01;12.63;;;7.70;;
58091;SDS011;43896;48.178;11.578;2024-01-07T00:08:27;11.00;;;6.97;;
58091;SDS011;43896;48.178;11.578;2024-01-07T00:10:52;11.73;;;7.32;;
58091;SDS011;43896;48.178;11.578;2024-01-07T00:13:18;11.82;;;7.43;;
58091;SDS011;43896;48.178;11.578;2024-01-07T00:15:43;12.15;;;7.03;;
58091;SDS011;43896;48.178;11.578;2024-01-07T00:18:08;12.88;;;7.95;;
58091;SDS011;43896;48.178;11.578;2024-01-07T00:20:34;11.18;;;6.95;;
58091;SDS011;43896;48.178;11.578;2024-01-07T00:22:59;11.55;;;6.90;;
58091;SDS011;43896;48.178;11.578;2024-01-07T00:25:24;12.32;;;7.70;;
58091;SDS011;43896;48.178;11.578;2024-01-07T00:27:50;12.85;;;7.72;;
58091;SDS011;43896;48.178;11.578;2024-01-07T00:30:17;11.77;;;7.60;;
58091;SDS011;43896;48.178;11.578;2024-01-07T00:32:43;11.35;;;7.10;;
58091;SDS011;43896;48.178;11.578;2024-01-07T00:35:08;11.43;;;7.00;;
58091;SDS011;43896;48.178;11.578;2024-01-07T00:37:33;11.05;;;6.75;;
58091;SDS011;43896;48.178;11.578;2024-01-07T00:40:00;11.15;;;7.35;;
58091;SDS011;43896;48.178;11.578;2024-01-07T00:42:25;13.55;;;8.10;;
58091;SDS011;43896;48.178;11.578;2024-01-07T00:44:51;12.75;;;7.22;;
58091;SDS011;43896;48.178;11.578;2024-01-07T00:47:16;10.82;;;7.05;;
58091;SDS011;43896;48.178;11.578;2024-01-07T00:49:42;11.20;;;7.00;;
58091;SDS011;43896;48.178;11.578;2024-01-07T00:52:07;10.90;;;6.82;;
58091;SDS011;43896;48.178;11.578;2024-01-07T00:54:33;11.77;;;7.53;;
58091;SDS011;43896;48.178;11.578;2024-01-07T00:56:59;11.43;;;7.22;;
58091;SDS011;43896;48.178;11.578;2024-01-07T00:59:24;10.77;;;7.07;;
58091;SDS011;43896;48.178;11.578;2024-01-07T01:01:49;10.98;;;6.68;;
58091;SDS011;43896;48.178;11.578;2024-01-07T01:04:15;10.85;;;6.80;;
58091;SDS011;43896;48.178;11.578;2024-01-07T01:06:40;11.93;;;7.25;;
58091;SDS011;43896;48.178;11.578;2024-01-07T01:09:06;11.10;;;7.03;;
58091;SDS011;43896;48.178;11.578;2024-01-07T01:11:31;10.80;;;6.88;;
58091;SDS011;43896;48.178;11.578;2024-01-07T01:13:56;10.63;;;6.97;;
58091;SDS011;43896;48.178;11.578;2024-01-07T01:16:22;11.77;;;7.07;;
58091;SDS011;43896;48.178;11.578;2024-01-07T01:18:49;12.07;;;7.18;;
58091;SDS011;43896;48.178;11.578;2024-01-07T01:21:14;14.10;;;8.25;;
58091;SDS011;43896;48.178;11.578;2024-01-07T01:23:40;10.95;;;6.75;;
58091;SDS011;43896;48.178;11.578;2024-01-07T01:26:05;11.85;;;7.38;;
58091;SDS011;43896;48.178;11.578;2024-01-07T01:28:31;11.45;;;7.22;;
58091;SDS011;43896;48.178;11.578;2024-01-07T01:30:56;10.77;;;7.03;;
58091;SDS011;43896;48.178;11.578;2024-01-07T01:33:22;9.80;;;6.72;;
58091;SDS011;43896;48.178;11.578;2024-01-07T01:35:48;11.45;;;7.15;;
58091;SDS011;43896;48.178;11.578;2024-01-07T01:38:13;12.13;;;6.97;;
58091;SDS011;43896;48.178;11.578;2024-01-07T01:40:38;11.10;;;6.72;;
58091;SDS011;43896;48.178;11.578;2024-01-07T01:43:04;11.05;;;7.13;;
58091;SDS011;43896;48.178;11.578;2024-01-07T01:45:29;11.77;;;7.18;;
58091;SDS011;43896;48.178;11.578;2024-01-07T01:47:55;9.95;;;6.53;;
58091;SDS011;43896;48.178;11.578;2024-01-07T01:50:20;10.27;;;6.63;;
58091;SDS011;43896;48.178;11.578;2024-01-07T01:52:47;10.85;;;6.82;;
58091;SDS011;43896;48.178;11.578;2024-01-07T01:55:13;10.27;;;6.70;;
58091;SDS011;43896;48.178;11.578;2024-01-07T01:57:39;10.93;;;6.90;;
58091;SDS011;43896;48.178;11.578;2024-01-07T02:00:05;10.20;;;6.72;;
58091;SDS011;43896;48.178;11.578;2024-01-07T02:02:31;11.05;;;6.90;;
58091;SDS011;43896;48.178;11.578;2024-01-07T02:05:05;10.82;;;7.22;;
58091;SDS011;43896;48.178;11.578;2024-01-07T02:07:30;11.20;;;6.70;;
58091;SDS011;43896;48.178;11.578;2024-01-07T02:09:56;10.25;;;6.63;;
58091;SDS011;43896;48.178;11.578;2024-01-07T02:12:22;10.45;;;6.72;;
58091;SDS011;43896;48.178;11.578;2024-01-07T02:14:47;11.30;;;7.15;;
58091;SDS011;43896;48.178;11.578;2024-01-07T02:17:13;10.93;;;6.43;;
58091;SDS011;43896;48.178;11.578;2024-01-07T02:19:39;10.38;;;6.65;;
58091;SDS011;43896;48.178;11.578;2024-01-07T02:22:04;10.73;;;6.72;;
58091;SDS011;43896;48.178;11.578;2024-01-07T02:24:29;10.75;;;7.32;;
58091;SDS011;43896;48.178;11.578;2024-01-07T02:26:55;10.63;;;6.95;;
58091;SDS011;43896;48.178;11.578;2024-01-07T02:29:21;9.77;;;6.22;;
58091;SDS011;43896;48.178;11.578;2024-01-07T02:31:46;10.63;;;6.75;;
58091;SDS011;43896;48.178;11.578;2024-01-07T02:34:12;9.85;;;6.18;;
58091;SDS011;43896;48.178;11.578;2024-01-07T02:36:37;10.25;;;6.43;;
58091;SDS011;43896;48.178;11.578;2024-01-07T02:39:02;9.75;;;6.22;;
58091;SDS011;43896;48.178;11.578;2024-01-07T02:41:28;9.70;;;6.50;;
58091;SDS011;43896;48.178;11.578;2024-01-07T02:43:53;9.95;;;6.28;;
58091;SDS011;43896;48.178;11.578;2024-01-07T02:46:19;8.95;;;5.90;;
58091;SDS011;43896;48.178;11.578;2024-01-07T02:48:45;9.65;;;6.05;;
58091;SDS011;43896;48.178;11.578;2024-01-07T02:51:10;9.82;;;6.22;;
58091;SDS011;43896;48.178;11.578;2024-01-07T02:53:36;9.13;;;5.80;;
58091;SDS011;43896;48.178;11.578;2024-01-07T02:56:01;9.00;;;5.75;;
58091;SDS011;43896;48.178;11.578;2024-01-07T02:58:27;9.55;;;6.57;;
58091;SDS011;43896;48.178;11.578;2024-01-07T03:00:52;8.45;;;5.50;;
58091;SDS011;43896;48.178;11.578;2024-01-07T03:03:17;9.00;;;5.72;;
58091;SDS011;43896;48.178;11.578;2024-01-07T03:05:43;9.27;;;5.78;;
58091;SDS011;43896;48.178;11.578;2024-01-07T03:08:08;10.32;;;6.03;;
58091;SDS011;43896;48.178;11.578;2024-01-07T03:10:34;9.68;;;5.93;;
58091;SDS011;43896;48.178;11.578;2024-01-07T03:13:00;8.95;;;5.82;;
58091;SDS011;43896;48.178;11.578;2024-01-07T03:15:25;9.98;;;6.47;;
58091;SDS011;43896;48.178;11.578;2024-01-07T03:17:51;9.10;;;5.80;;
58091;SDS011;43896;48.178;11.578;2024-01-07T03:20:16;9.55;;;5.97;;
58091;SDS011;43896;48.178;11.578;2024-01-07T03:22:41;10.63;;;6.35;;
58091;SDS011;43896;48.178;11.578;2024-01-07T03:25:07;9.57;;;6.45;;
58091;SDS011;43896;48.178;11.578;2024-01-07T03:27:33;9.00;;;5.97;;
58091;SDS011;43896;48.178;11.578;2024-01-07T03:29:58;9.43;;;6.10;;
58091;SDS011;43896;48.178;11.578;2024-01-07T03:32:23;9.68;;;6.15;;
58091;SDS011;43896;48.178;11.578;2024-01-07T03:34:49;10.07;;;6.53;;
58091;SDS011;43896;48.178;11.578;2024-01-07T03:37:14;10.70;;;7.00;;
58091;SDS011;43896;48.178;11.578;2024-01-07T03:39:41;9.13;;;5.50;;
58091;SDS011;43896;48.178;11.578;2024-01-07T03:42:06;9.07;;;6.15;;
58091;SDS011;43896;48.178;11.578;2024-01-07T03:44:36;9.38;;;5.93;;
58091;SDS011;43896;48.178;11.578;2024-01-07T03:47:05;9.50;;;6.30;;
58091;SDS011;43896;48.178;11.578;2024-01-07T03:49:31;9.90;;;6.15;;
58091;SDS011;43896;48.178;11.578;2024-01-07T03:51:56;9.40;;;6.00;;
58091;SDS011;43896;48.178;11.578;2024-01-07T03:54:22;11.13;;;7.43;;
58091;SDS011;43896;48.178;11.578;2024-01-07T03:56:47;10.55;;;6.80;;
58091;SDS011;43896;48.178;11.578;2024-01-07T03:59:12;9.68;;;6.13;;
58091;SDS011;43896;48.178;11.578;2024-01-07T04:01:38;10.45;;;6.55;;
58091;SDS011;43896;48.178;11.578;2024-01-07T04:04:03;9.60;;;6.15;;
58091;SDS011;43896;48.178;11.578;2024-01-07T04:06:28;10.48;;;6.75;;
58091;SDS011;43896;48.178;11.578;2024-01-07T04:08:54;9.75;;;6.28;;
58091;SDS011;43896;48.178;11.578;2024-01-07T04:11:19;10.10;;;6.35;;
58091;SDS011;43896;48.178;11.578;2024-01-07T04:13:44;10.00;;;6.72;;
58091;SDS011;43896;48.178;11.578;2024-01-07T04:16:17;10.52;;;6.93;;
58091;SDS011;43896;48.178;11.578;2024-01-07T04:18:47;10.93;;;6.57;;
58091;SDS011;43896;48.178;11.578;2024-01-07T04:21:13;10.63;;;6.90;;
58091;SDS011;43896;48.178;11.578;2024-01-07T04:23:39;11.23;;;7.07;;
58091;SDS011;43896;48.178;11.578;2024-01-07T04:26:07;10.17;;;6.43;;
58091;SDS011;43896;48.178;11.578;2024-01-07T04:28:32;10.52;;;6.53;;
58091;SDS011;43896;48.178;11.578;2024-01-07T04:30:58;10.15;;;6.55;;
58091;SDS011;43896;48.178;11.578;2024-01-07T04:33:23;9.23;;;5.85;;
58091;SDS011;43896;48.178;11.578;2024-01-07T04:35:49;9.75;;;6.13;;
58091;SDS011;43896;48.178;11.578;2024-01-07T04:38:14;9.80;;;6.10;;
58091;SDS011;43896;48.178;11.578;2024-01-07T04:40:39;10.23;;;6.15;;
58091;SDS011;43896;48.178;11.578;2024-01-07T04:43:05;9.75;;;6.28;;
58091;SDS011;43896;48.178;11.578;2024-01-07T04:45:30;9.93;;;6.38;;
58091;SDS011;43896;48.178;11.578;2024-01-07T04:47:55;10.35;;;5.95;;
58091;SDS011;43896;48.178;11.578;2024-01-07T04:50:21;9.75;;;6.38;;
58091;SDS011;43896;48.178;11.578;2024-01-07T04:52:46;9.93;;;6.53;;
58091;SDS011;43896;48.178;11.578;2024-01-07T04:55:12;9.27;;;6.07;;
58091;SDS011;43896;48.178;11.578;2024-01-07T04:57:37;9.68;;;6.20;;
58091;SDS011;43896;48.178;11.578;2024-01-07T05:00:03;8.88;;;5.63;;
58091;SDS011;43896;48.178;11.578;2024-01-07T05:02:29;9.35;;;5.90;;
58091;SDS011;43896;48.178;11.578;2024-01-07T05:04:54;9.95;;;6.35;;
58091;SDS011;43896;48.178;11.578;2024-01-07T05:07:20;12.07;;;6.60;;
58091;SDS011;43896;48.178;11.578;2024-01-07T05:09:45;9.90;;;6.28;;
58091;SDS011;43896;48.178;11.578;2024-01-07T05:12:10;9.43;;;5.95;;
58091;SDS011;43896;48.178;11.578;2024-01-07T05:14:36;8.90;;;5.80;;
58091;SDS011;43896;48.178;11.578;2024-01-07T05:17:02;9.25;;;5.65;;
58091;SDS011;43896;48.178;11.578;2024-01-07T05:19:28;9.50;;;5.75;;
58091;SDS011;43896;48.178;11.578;2024-01-07T05:21:54;8.88;;;5.80;;
58091;SDS011;43896;48.178;11.578;2024-01-07T05:24:19;9.35;;;5.95;;
58091;SDS011;43896;48.178;11.578;2024-01-07T05:26:45;10.45;;;6.55;;
58091;SDS011;43896;48.178;11.578;2024-01-07T05:29:10;10.00;;;6.05;;
58091;SDS011;43896;48.178;11.578;2024-01-07T05:31:39;9.45;;;5.90;;
58091;SDS011;43896;48.178;11.578;2024-01-07T05:34:05;10.20;;;6.28;;
58091;SDS011;43896;48.178;11.578;2024-01-07T05:36:31;8.88;;;5.88;;
58091;SDS011;43896;48.178;11.578;2024-01-07T05:38:56;10.57;;;6.00;;
58091;SDS011;43896;48.178;11.578;2024-01-07T05:41:21;9.45;;;5.75;;
58091;SDS011;43896;48.178;11.578;2024-01-07T05:43:47;9.30;;;5.90;;
58091;SDS011;43896;48.178;11.578;2024-01-07T05:46:12;9.77;;;5.88;;
58091;SDS011;43896;48.178;11.578;2024-01-07T05:48:44;9.68;;;5.78;;
58091;SDS011;43896;48.178;11.578;2024-01-07T05:51:10;9.40;;;5.70;;
58091;SDS011;43896;48.178;11.578;2024-01-07T05:53:36;9.07;;;5.28;;
58091;SDS011;43896;48.178;11.578;2024-01-07T05:56:02;9.10;;;5.30;;
58091;SDS011;43896;48.178;11.578;2024-01-07T05:58:28;8.48;;;5.05;;
58091;SDS011;43896;48.178;11.578;2024-01-07T06:00:53;9.32;;;5.50;;
58091;SDS011;43896;48.178;11.578;2024-01-07T06:03:19;9.30;;;5.50;;
58091;SDS011;43896;48.178;11.578;2024-01-07T06:05:44;9.10;;;5.78;;
58091;SDS011;43896;48.178;11.578;2024-01-07T06:08:09;8.43;;;5.30;;
58091;SDS011;43896;48.178;11.578;2024-01-07T06:10:35;8.55;;;5.57;;
58091;SDS011;43896;48.178;11.578;2024-01-07T06:13:00;9.40;;;5.80;;
58091;SDS011;43896;48.178;11.578;2024-01-07T06:15:28;9.10;;;5.40;;
58091;SDS011;43896;48.178;11.578;2024-01-07T06:17:53;9.23;;;5.68;;
58091;SDS011;43896;48.178;11.578;2024-01-07T06:20:19;9.00;;;5.50;;
58091;SDS011;43896;48.178;11.578;2024-01-07T06:22:44;9.90;;;5.80;;
58091;SDS011;43896;48.178;11.578;2024-01-07T06:25:09;8.50;;;5.25;;
58091;SDS011;43896;48.178;11.578;2024-01-07T06:27:35;8.68;;;5.22;;
58091;SDS011;43896;48.178;11.578;2024-01-07T06:30:01;9.02;;;5.38;;
58091;SDS011;43896;48.178;11.578;2024-01-07T06:32:26;9.50;;;5.97;;
58091;SDS011;43896;48.178;11.578;2024-01-07T06:34:51;9.18;;;5.32;;
58091;SDS011;43896;48.178;11.578;2024-01-07T06:37:17;8.90;;;5.18;;
58091;SDS011;43896;48.178;11.578;2024-01-07T06:39:42;8.40;;;5.20;;
58091;SDS011;43896;48.178;11.578;2024-01-07T06:42:08;8.75;;;4.90;;
58091;SDS011;43896;48.178;11.578;2024-01-07T06:44:33;8.80;;;5.05;;
58091;SDS011;43896;48.178;11.578;2024-01-07T06:46:58;8.35;;;4.63;;
58091;SDS011;43896;48.178;11.578;2024-01-07T06:49:24;8.63;;;5.05;;
58091;SDS011;43896;48.178;11.578;2024-01-07T06:51:49;8.60;;;4.55;;
58091;SDS011;43896;48.178;11.578;2024-01-07T06:54:14;8.90;;;5.32;;
58091;SDS011;43896;48.178;11.578;2024-01-07T06:56:40;10.18;;;5.15;;
58091;SDS011;43896;48.178;11.578;2024-01-07T06:59:05;8.13;;;4.90;;
58091;SDS011;43896;48.178;11.578;2024-01-07T07:01:32;8.25;;;4.90;;
58091;SDS011;43896;48.178;11.578;2024-01-07T07:03:57;7.60;;;4.65;;
58091;SDS011;43896;48.178;11.578;2024-01-07T07:06:23;8.23;;;5.00;;
58091;SDS011;43896;48.178;11.578;2024-01-07T07:08:49;8.90;;;5.25;;
58091;SDS011;43896;48.178;11.578;2024-01-07T07:11:15;8.93;;;4.97;;
58091;SDS011;43896;48.178;11.578;2024-01-07T07:13:41;8.43;;;4.75;;
58091;SDS011;43896;48.178;11.578;2024-01-07T07:16:06;8.88;;;5.05;;
58091;SDS011;43896;48.178;11.578;2024-01-07T07:18:32;8.30;;;4.60;;
58091;SDS011;43896;48.178;11.578;2024-01-07T07:20:58;8.75;;;5.00;;
58091;SDS011;43896;48.178;11.578;2024-01-07T07:23:23;7.65;;;4.45;;
58091;SDS011;43896;48.178;11.578;2024-01-07T07:25:49;8.05;;;4.93;;
58091;SDS011;43896;48.178;11.578;2024-01-07T07:28:14;8.60;;;5.03;;
58091;SDS011;43896;48.178;11.578;2024-01-07T07:30:39;8.30;;;4.78;;
58091;SDS011;43896;48.178;11.578;2024-01-07T07:33:05;8.68;;;5.03;;
58091;SDS011;43896;48.178;11.578;2024-01-07T07:35:30;8.55;;;5.03;;
58091;SDS011;43896;48.178;11.578;2024-01-07T07:37:55;8.05;;;4.90;;
58091;SDS011;43896;48.178;11.578;2024-01-07T07:40:20;9.63;;;5.63;;
58091;SDS011;43896;48.178;11.578;2024-01-07T07:42:46;8.55;;;4.78;;
58091;SDS011;43896;48.178;11.578;2024-01-07T07:45:11;9.60;;;5.18;;
58091;SDS011;43896;48.178;11.578;2024-01-07T07:47:37;8.90;;;4.97;;
58091;SDS011;43896;48.178;11.578;2024-01-07T07:50:04;9.75;;;5.47;;
58091;SDS011;43896;48.178;11.578;2024-01-07T07:52:30;9.48;;;5.45;;
58091;SDS011;43896;48.178;11.578;2024-01-07T07:54:55;8.82;;;5.18;;
58091;SDS011;43896;48.178;11.578;2024-01-07T07:57:21;8.95;;;5.40;;
58091;SDS011;43896;48.178;11.578;2024-01-07T07:59:47;9.25;;;4.90;;
58091;SDS011;43896;48.178;11.578;2024-01-07T08:02:13;9.45;;;5.10;;
58091;SDS011;43896;48.178;11.578;2024-01-07T08:04:38;9.43;;;5.35;;
58091;SDS011;43896;48.178;11.578;2024-01-07T08:07:06;9.23;;;5.10;;
58091;SDS011;43896;48.178;11.578;2024-01-07T08:09:31;9.57;;;5.25;;
58091;SDS011;43896;48.178;11.578;2024-01-07T08:11:57;9.00;;;5.07;;
58091;SDS011;43896;48.178;11.578;2024-01-07T08:14:22;9.75;;;5.20;;
58091;SDS011;43896;48.178;11.578;2024-01-07T08:16:48;9.18;;;5.35;;
58091;SDS011;43896;48.178;11.578;2024-01-07T08:19:13;10.70;;;5.57;;
58091;SDS011;43896;48.178;11.578;2024-01-07T08:21:38;10.07;;;5.68;;
58091;SDS011;43896;48.178;11.578;2024-01-07T08:24:04;9.35;;;5.15;;
58091;SDS011;43896;48.178;11.578;2024-01-07T08:26:29;9.60;;;5.30;;
58091;SDS011;43896;48.178;11.578;2024-01-07T08:28:56;10.05;;;5.38;;
58091;SDS011;43896;48.178;11.578;2024-01-07T08:31:21;10.48;;;5.25;;
58091;SDS011;43896;48.178;11.578;2024-01-07T08:33:47;10.52;;;5.35;;
58091;SDS011;43896;48.178;11.578;2024-01-07T08:36:12;10.07;;;5.22;;
58091;SDS011;43896;48.178;11.578;2024-01-07T08:38:37;8.88;;;4.85;;
58091;SDS011;43896;48.178;11.578;2024-01-07T08:41:03;9.88;;;4.90;;
58091;SDS011;43896;48.178;11.578;2024-01-07T08:43:29;11.20;;;5.55;;
58091;SDS011;43896;48.178;11.578;2024-01-07T08:45:54;9.63;;;5.15;;
58091;SDS011;43896;48.178;11.578;2024-01-07T08:48:20;9.38;;;5.20;;
58091;SDS011;43896;48.178;11.578;2024-01-07T08:50:45;10.00;;;5.50;;
58091;SDS011;43896;48.178;11.578;2024-01-07T08:56:32;10.70;;;5.63;;
58091;SDS011;43896;48.178;11.578;2024-01-07T08:58:58;10.63;;;5.47;;
58091;SDS011;43896;48.178;11.578;2024-01-07T09:01:24;10.35;;;5.38;;
58091;SDS011;43896;48.178;11.578;2024-01-07T09:03:49;11.30;;;6.13;;
58091;SDS011;43896;48.178;11.578;2024-01-07T09:06:15;9.57;;;5.00;;
58091;SDS011;43896;48.178;11.578;2024-01-07T09:08:40;10.18;;;5.50;;
58091;SDS011;43896;48.178;11.578;2024-01-07T09:11:05;10.80;;;5.40;;
58091;SDS011;43896;48.178;11.578;2024-01-07T09:13:32;10.40;;;5.72;;
58091;SDS011;43896;48.178;11.578;2024-01-07T09:15:57;10.90;;;6.05;;
58091;SDS011;43896;48.178;11.578;2024-01-07T09:18:23;10.77;;;5.85;;
58091;SDS011;43896;48.178;11.578;2024-01-07T09:20:48;10.18;;;5.43;;
58091;SDS011;43896;48.178;11.578;2024-01-07T09:23:13;11.23;;;5.80;;
58091;SDS011;43896;48.178;11.578;2024-01-07T09:25:40;12.45;;;6.15;;
58091;SDS011;43896;48.178;11.578;2024-01-07T09:28:06;11.57;;;5.82;;
58091;SDS011;43896;48.178;11.578;2024-01-07T09:30:32;10.82;;;6.13;;
58091;SDS011;43896;48.178;11.578;2024-01-07T09:32:57;11.13;;;5.55;;
58091;SDS011;43896;48.178;11.578;2024-01-07T09:35:22;11.57;;;6.40;;
58091;SDS011;43896;48.178;11.578;2024-01-07T09:37:48;11.57;;;6.13;;
58091;SDS011;43896;48.178;11.578;2024-01-07T09:40:16;11.93;;;6.15;;
58091;SDS011;43896;48.178;11.578;2024-01-07T09:42:46;10.68;;;5.78;;
58091;SDS011;43896;48.178;11.578;2024-01-07T09:45:12;11.00;;;6.13;;
58091;SDS011;43896;48.178;11.578;2024-01-07T09:47:39;11.40;;;6.30;;
58091;SDS011;43896;48.178;11.578;2024-01-07T09:50:06;11.45;;;6.53;;
58091;SDS011;43896;48.178;11.578;2024-01-07T09:52:32;13.02;;;6.57;;
58091;SDS011;43896;48.178;11.578;2024-01-07T09:55:00;12.15;;;6.18;;
58091;SDS011;43896;48.178;11.578;2024-01-07T09:57:28;12.25;;;6.30;;
58091;SDS011;43896;48.178;11.578;2024-01-07T09:59:54;12.07;;;6.47;;
58091;SDS011;43896;48.178;11.578;2024-01-07T10:02:20;11.90;;;6.20;;
58091;SDS011;43896;48.178;11.578;2024-01-07T10:04:48;11.40;;;6.43;;
58091;SDS011;43896;48.178;11.578;2024-01-07T10:07:13;10.90;;;5.88;;
58091;SDS011;43896;48.178;11.578;2024-01-07T10:09:40;11.18;;;6.00;;
58091;SDS011;43896;48.178;11.578;2024-01-07T10:12:07;11.55;;;6.32;;
58091;SDS011;43896;48.178;11.578;2024-01-07T10:14:33;11.40;;;6.20;;
58091;SDS011;43896;48.178;11.578;2024-01-07T10:16:59;10.63;;;5.80;;
58091;SDS011;43896;48.178;11.578;2024-01-07T10:19:24;11.60;;;6.35;;
58091;SDS011;43896;48.178;11.578;2024-01-07T10:21:59;11.63;;;6.45;;
58091;SDS011;43896;48.178;11.578;2024-01-07T10:24:26;11.43;;;5.97;;
58091;SDS011;43896;48.178;11.578;2024-01-07T10:26:51;12.38;;;6.45;;
58091;SDS011;43896;48.178;11.578;2024-01-07T10:29:17;11.65;;;6.00;;
58091;SDS011;43896;48.178;11.578;2024-01-07T10:31:42;11.73;;;5.80;;
58091;SDS011;43896;48.178;11.578;2024-01-07T10:34:09;10.52;;;6.03;;
58091;SDS011;43896;48.178;11.578;2024-01-07T10:36:35;11.77;;;6.28;;
58091;SDS011;43896;48.178;11.578;2024-01-07T10:39:02;11.32;;;6.03;;
58091;SDS011;43896;48.178;11.578;2024-01-07T10:41:27;12.07;;;6.03;;
58091;SDS011;43896;48.178;11.578;2024-01-07T10:43:55;10.63;;;5.85;;
58091;SDS011;43896;48.178;11.578;2024-01-07T10:46:20;11.15;;;5.53;;
58091;SDS011;43896;48.178;11.578;2024-01-07T10:48:49;12.18;;;5.97;;
58091;SDS011;43896;48.178;11.578;2024-01-07T10:51:20;9.38;;;5.50;;
58091;SDS011;43896;48.178;11.578;2024-01-07T10:53:46;9.60;;;5.40;;
58091;SDS011;43896;48.178;11.578;2024-01-07T10:56:18;9.90;;;5.15;;
58091;SDS011;43896;48.178;11.578;2024-01-07T10:58:47;9.60;;;5.03;;
58091;SDS011;43896;48.178;11.578;2024-01-07T11:01:14;10.82;;;6.10;;
58091;SDS011;43896;48.178;11.578;2024-01-07T11:06:27;10.70;;;5.53;;
58091;SDS011;43896;48.178;11.578;2024-01-07T11:08:59;9.80;;;5.47;;
58091;SDS011;43896;48.178;11.578;2024-01-07T11:11:40;9.63;;;5.15;;
58091;SDS011;43896;48.178;11.578;2024-01-07T11:20:04;11.10;;;5.75;;
58091;SDS011;43896;48.178;11.578;2024-01-07T11:22:31;10.32;;;5.22;;
58091;SDS011;43896;48.178;11.578;2024-01-07T11:24:58;9.43;;;5.15;;
58091;SDS011;43896;48.178;11.578;2024-01-07T11:27:24;10.73;;;5.55;;
58091;SDS011;43896;48.178;11.578;2024-01-07T11:29:57;9.73;;;5.00;;
58091;SDS011;43896;48.178;11.578;2024-01-07T11:32:28;8.85;;;5.22;;
58091;SDS011;43896;48.178;11.578;2024-01-07T11:34:54;10.27;;;5.80;;
58091;SDS011;43896;48.178;11.578;2024-01-07T11:37:21;10.70;;;5.35;;
58091;SDS011;43896;48.178;11.578;2024-01-07T11:39:51;11.10;;;4.97;;
58091;SDS011;43896;48.178;11.578;2024-01-07T11:42:20;9.00;;;4.90;;
58091;SDS011;43896;48.178;11.578;2024-01-07T11:44:51;9.68;;;5.10;;
58091;SDS011;43896;48.178;11.578;2024-01-07T11:49:51;9.65;;;5.32;;
58091;SDS011;43896;48.178;11.578;2024-01-07T11:52:22;9.10;;;4.80;;
58091;SDS011;43896;48.178;11.578;2024-01-07T11:54:48;8.73;;;4.97;;
58091;SDS011;43896;48.178;11.578;2024-01-07T11:57:20;9.93;;;5.70;;
58091;SDS011;43896;48.178;11.578;2024-01-07T11:59:46;9.73;;;4.93;;
58091;SDS011;43896;48.178;11.578;2024-01-07T12:02:11;9.20;;;5.10;;
58091;SDS011;43896;48.178;11.578;2024-01-07T12:04:36;10.95;;;5.75;;
58091;SDS011;43896;48.178;11.578;2024-01-07T12:07:02;9.02;;;5.57;;
58091;SDS011;43896;48.178;11.578;2024-01-07T12:09:29;9.00;;;5.28;;
58091;SDS011;43896;48.178;11.578;2024-01-07T12:11:55;9.32;;;5.90;;
58091;SDS011;43896;48.178;11.578;2024-01-07T12:14:21;9.40;;;5.32;;
58091;SDS011;43896;48.178;11.578;2024-01-07T12:16:47;10.10;;;5.10;;
58091;SDS011;43896;48.178;11.578;2024-01-07T12:19:12;9.90;;;5.53;;
58091;SDS011;43896;48.178;11.578;2024-01-07T12:21:41;9.93;;;5.68;;
58091;SDS011;43896;48.178;11.578;2024-01-07T12:24:06;10.40;;;5.97;;
58091;SDS011;43896;48.178;11.578;2024-01-07T12:26:32;10.00;;;5.63;;
58091;SDS011;43896;48.178;11.578;2024-01-07T12:31:34;9.52;;;5.53;;
58091;SDS011;43896;48.178;11.578;2024-01-07T12:34:00;10.18;;;5.90;;
58091;SDS011;43896;48.178;11.578;2024-01-07T12:36:29;10.75;;;6.30;;
58091;SDS011;43896;48.178;11.578;2024-01-07T12:38:54;10.15;;;5.78;;
58091;SDS011;43896;48.178;11.578;2024-01-07T12:41:20;10.25;;;5.80;;
58091;SDS011;43896;48.178;11.578;2024-01-07T12:43:46;11.57;;;6.35;;
58091;SDS011;43896;48.178;11.578;2024-01-07T12:46:12;10.65;;;5.88;;
58091;SDS011;43896;48.178;11.578;2024-01-07T12:48:37;10.13;;;5.80;;
58091;SDS011;43896;48.178;11.578;2024-01-07T12:51:03;10.13;;;5.88;;
58091;SDS011;43896;48.178;11.578;2024-01-07T12:53:28;11.05;;;6.30;;
58091;SDS011;43896;48.178;11.578;2024-01-07T12:55:54;10.45;;;5.78;;
58091;SDS011;43896;48.178;11.578;2024-01-07T12:58:19;10.63;;;6.07;;
58091;SDS011;43896;48.178;11.578;2024-01-07T13:00:46;10.48;;;6.05;;
58091;SDS011;43896;48.178;11.578;2024-01-07T13:03:11;10.35;;;6.07;;
58091;SDS011;43896;48.178;11.578;2024-01-07T13:05:42;10.25;;;6.03;;
58091;SDS011;43896;48.178;11.578;2024-01-07T13:08:11;10.68;;;6.55;;
58091;SDS011;43896;48.178;11.578;2024-01-07T13:10:37;9.85;;;5.95;;
58091;SDS011;43896;48.178;11.578;2024-01-07T13:13:03;9.10;;;5.63;;
58091;SDS011;43896;48.178;11.578;2024-01-07T13:15:28;9.15;;;5.30;;
58091;SDS011;43896;48.178;11.578;2024-01-07T13:17:54;8.80;;;5.20;;
58091;SDS011;43896;48.178;11.578;2024-01-07T13:20:19;9.00;;;5.30;;
58091;SDS011;43896;48.178;11.578;2024-01-07T13:22:45;9.18;;;5.43;;
58091;SDS011;43896;48.178;11.578;2024-01-07T13:25:11;11.35;;;6.00;;
58091;SDS011;43896;48.178;11.578;2024-01-07T13:27:36;10.80;;;5.60;;
58091;SDS011;43896;48.178;11.578;2024-01-07T13:30:02;9.75;;;6.03;;
58091;SDS011;43896;48.178;11.578;2024-01-07T13:32:28;9.52;;;5.53;;
58091;SDS011;43896;48.178;11.578;2024-01-07T13:34:53;10.32;;;5.75;;
58091;SDS011;43896;48.178;11.578;2024-01-07T13:37:18;8.95;;;5.55;;
58091;SDS011;43896;48.178;11.578;2024-01-07T13:39:45;9.20;;;5.65;;
58091;SDS011;43896;48.178;11.578;2024-01-07T13:42:10;9.57;;;5.40;;
58091;SDS011;43896;48.178;11.578;2024-01-07T13:44:37;9.00;;;5.30;;
58091;SDS011;43896;48.178;11.578;2024-01-07T13:47:11;10.23;;;5.38;;
58091;SDS011;43896;48.178;11.578;2024-01-07T13:49:36;9.57;;;5.82;;
58091;SDS011;43896;48.178;11.578;2024-01-07T13:52:02;9.57;;;5.63;;
58091;SDS011;43896;48.178;11.578;2024-01-07T13:54:28;10.82;;;5.90;;
58091;SDS011;43896;48.178;11.578;2024-01-07T13:56:53;12.38;;;6.35;;
58091;SDS011;43896;48.178;11.578;2024-01-07T13:59:19;10.55;;;5.95;;
58091;SDS011;43896;48.178;11.578;2024-01-07T14:01:44;10.77;;;5.80;;
58091;SDS011;43896;48.178;11.578;2024-01-07T14:04:09;10.15;;;5.82;;
58091;SDS011;43896;48.178;11.578;2024-01-07T14:06:35;9.98;;;6.07;;
58091;SDS011;43896;48.178;11.578;2024-01-07T14:09:00;9.73;;;5.72;;
58091;SDS011;43896;48.178;11.578;2024-01-07T14:11:26;10.60;;;5.82;;
58091;SDS011;43896;48.178;11.578;2024-01-07T14:13:53;9.48;;;5.72;;
58091;SDS011;43896;48.178;11.578;2024-01-07T14:16:18;8.98;;;5.78;;
58091;SDS011;43896;48.178;11.578;2024-01-07T14:18:43;10.95;;;6.10;;
58091;SDS011;43896;48.178;11.578;2024-01-07T14:21:09;10.52;;;5.63;;
58091;SDS011;43896;48.178;11.578;2024-01-07T14:23:34;11.02;;;5.75;;
58091;SDS011;43896;48.178;11.578;2024-01-07T14:26:00;10.02;;;6.13;;
58091;SDS011;43896;48.178;11.578;2024-01-07T14:28:26;10.75;;;6.50;;
58091;SDS011;43896;48.178;11.578;2024-01-07T14:30:51;10.43;;;6.15;;
58091;SDS011;43896;48.178;11.578;2024-01-07T14:33:17;10.30;;;6.18;;
58091;SDS011;43896;48.178;11.578;2024-01-07T14:35:42;10.75;;;7.03;;
58091;SDS011;43896;48.178;11.578;2024-01-07T14:38:08;10.15;;;5.93;;